Time;durP1;ratioP1;P1;durP2;ratioP2;P2;SDS_P1;SDS_P2;PMS_P1;PMS_P2;Temp;Humidity;BMP_temperature;BMP_pressure;BME280_temperature;BME280_humidity;BME280_pressure;Samples;Min_cycle;Max_cycle;Signal;HPM_P1;HPM_P2
2022/10/19 00:01:21;;;;;;;0.10;0.10;;;;;;;;;;5073241;28;20028;-75
2022/10/19 00:03:48;;;;;;;0.20;0.20;;;;;;;;;;5073160;28;20024;-75
2022/10/19 00:06:13;;;;;;;2.00;1.05;;;;;;;;;;5073656;28;20135;-75
2022/10/19 00:08:39;;;;;;;0.17;0.17;;;;;;;;;;5073066;28;20127;-75
2022/10/19 00:11:04;;;;;;;0.10;0.10;;;;;;;;;;5073084;28;20036;-76
2022/10/19 00:13:30;;;;;;;0.20;0.20;;;;;;;;;;5073096;28;20028;-75
2022/10/19 00:15:55;;;;;;;1.00;0.90;;;;;;;;;;5073073;28;20020;-76
2022/10/19 00:18:21;;;;;;;1.60;1.25;;;;;;;;;;5072604;28;20057;-75
2022/10/19 00:20:46;;;;;;;0.20;0.20;;;;;;;;;;5071895;28;20040;-76
2022/10/19 00:23:12;;;;;;;7.95;2.13;;;;;;;;;;5071688;28;20032;-76
2022/10/19 00:25:37;;;;;;;0.45;0.43;;;;;;;;;;5073233;28;20028;-75
2022/10/19 00:28:03;;;;;;;0.90;0.75;;;;;;;;;;5072945;28;20028;-75
2022/10/19 00:30:29;;;;;;;0.10;0.10;;;;;;;;;;5073030;28;20041;-75
2022/10/19 00:32:54;;;;;;;0.20;0.20;;;;;;;;;;5072947;28;20464;-76
2022/10/19 00:35:20;;;;;;;0.20;0.20;;;;;;;;;;5072280;28;20128;-76
2022/10/19 00:37:45;;;;;;;0.10;0.10;;;;;;;;;;5076356;28;20032;-76
2022/10/19 00:40:11;;;;;;;0.17;0.17;;;;;;;;;;5077300;28;20036;-77
2022/10/19 00:42:37;;;;;;;0.10;0.10;;;;;;;;;;5077163;28;20029;-77
2022/10/19 00:45:12;;;;;;;0.20;0.20;;;;;;;;;;5077095;28;20116;-77
2022/10/19 00:47:38;;;;;;;0.10;0.10;;;;;;;;;;5075498;28;20036;-76
2022/10/19 00:50:04;;;;;;;0.10;0.10;;;;;;;;;;5075923;28;20028;-77
2022/10/19 00:52:30;;;;;;;0.10;0.10;;;;;;;;;;5076931;28;20020;-76
2022/10/19 00:54:56;;;;;;;0.10;0.10;;;;;;;;;;5077105;28;20025;-75
2022/10/19 00:57:22;;;;;;;1.90;0.57;;;;;;;;;;5076883;28;20043;-81
2022/10/19 00:59:47;;;;;;;0.10;0.10;;;;;;;;;;5075569;28;20021;-82
2022/10/19 01:02:13;;;;;;;0.38;0.38;;;;;;;;;;5076645;28;20159;-81
2022/10/19 01:04:41;;;;;;;0.93;0.68;;;;;;;;;;5076718;28;20044;-81
2022/10/19 01:07:07;;;;;;;2.25;0.85;;;;;;;;;;5076561;28;20032;-75
2022/10/19 01:09:32;;;;;;;0.15;0.15;;;;;;;;;;5076724;28;20154;-76
2022/10/19 01:12:07;;;;;;;0.10;0.10;;;;;;;;;;5075339;28;20108;-78
2022/10/19 01:14:33;;;;;;;0.70;0.70;;;;;;;;;;5058563;28;20493;-76
2022/10/19 01:17:03;;;;;;;1.30;1.10;;;;;;;;;;5076330;28;20050;-74
2022/10/19 01:19:47;;;;;;;1.95;1.45;;;;;;;;;;5076264;28;20126;-74
2022/10/19 01:22:16;;;;;;;6.85;1.45;;;;;;;;;;5076331;28;20043;-73
2022/10/19 01:24:44;;;;;;;3.08;2.78;;;;;;;;;;5075059;28;20039;-76
2022/10/19 01:27:21;;;;;;;0.93;0.85;;;;;;;;;;5076164;28;20020;-75
2022/10/19 01:29:56;;;;;;;0.10;0.10;;;;;;;;;;5076372;28;20115;-76
2022/10/19 01:32:24;;;;;;;1.60;1.00;;;;;;;;;;5076062;28;20020;-76
2022/10/19 01:35:01;;;;;;;1.65;1.50;;;;;;;;;;5076147;28;20025;-76
2022/10/19 01:37:27;;;;;;;2.75;1.48;;;;;;;;;;5076114;28;20031;-75
2022/10/19 01:39:57;;;;;;;1.63;1.33;;;;;;;;;;5075819;28;20387;-75
2022/10/19 01:42:29;;;;;;;3.40;3.10;;;;;;;;;;5076041;28;20025;-75
2022/10/19 01:45:01;;;;;;;0.22;0.22;;;;;;;;;;5076218;28;20033;-74
2022/10/19 01:47:33;;;;;;;5.20;3.05;;;;;;;;;;5074949;28;20039;-74
2022/10/19 01:50:02;;;;;;;3.40;2.75;;;;;;;;;;5075923;28;20448;-73
2022/10/19 01:52:28;;;;;;;3.80;2.42;;;;;;;;;;5075657;28;20492;-76
2022/10/19 01:54:56;;;;;;;0.10;0.10;;;;;;;;;;5076043;28;20028;-76
2022/10/19 01:57:24;;;;;;;0.85;0.82;;;;;;;;;;5074606;28;20040;-77
2022/10/19 01:59:50;;;;;;;0.10;0.10;;;;;;;;;;5075802;28;20059;-77
2022/10/19 02:02:16;;;;;;;0.10;0.10;;;;;;;;;;5075377;28;20116;-78
2022/10/19 02:04:42;;;;;;;0.30;0.30;;;;;;;;;;5075618;28;20381;-76
2022/10/19 02:07:08;;;;;;;0.10;0.10;;;;;;;;;;5074155;28;20059;-77
2022/10/19 02:09:34;;;;;;;0.20;0.20;;;;;;;;;;5075750;28;20028;-77
2022/10/19 02:12:02;;;;;;;0.82;0.82;;;;;;;;;;5075626;28;20385;-76
2022/10/19 02:14:32;;;;;;;0.20;0.20;;;;;;;;;;5075522;28;20521;-76
2022/10/19 02:17:00;;;;;;;0.20;0.20;;;;;;;;;;5075677;28;20112;-74
2022/10/19 02:19:26;;;;;;;0.17;0.17;;;;;;;;;;5075170;28;20093;-74
2022/10/19 02:21:51;;;;;;;0.80;0.60;;;;;;;;;;5075403;28;20040;-73
2022/10/19 02:24:17;;;;;;;0.85;0.65;;;;;;;;;;5075315;28;20028;-74
2022/10/19 02:26:42;;;;;;;0.77;0.77;;;;;;;;;;5075312;28;20029;-74
2022/10/19 02:29:08;;;;;;;1.35;1.25;;;;;;;;;;5075141;28;20028;-74
2022/10/19 02:31:34;;;;;;;3.20;0.85;;;;;;;;;;5075564;28;20415;-73
2022/10/19 02:34:00;;;;;;;0.20;0.20;;;;;;;;;;5075041;28;20024;-73
2022/10/19 02:36:25;;;;;;;0.20;0.20;;;;;;;;;;5073667;28;20048;-73
2022/10/19 02:38:51;;;;;;;0.20;0.20;;;;;;;;;;5074776;28;20035;-73
2022/10/19 02:41:29;;;;;;;0.20;0.20;;;;;;;;;;5075016;28;20040;-73
2022/10/19 02:43:59;;;;;;;0.77;0.77;;;;;;;;;;5074566;28;20028;-73
2022/10/19 02:46:35;;;;;;;0.15;0.15;;;;;;;;;;5074859;28;20111;-74
2022/10/19 02:49:01;;;;;;;0.20;0.20;;;;;;;;;;5074537;28;20028;-74
2022/10/19 02:51:27;;;;;;;0.10;0.10;;;;;;;;;;5073455;28;20037;-73
2022/10/19 02:53:52;;;;;;;0.10;0.10;;;;;;;;;;5074693;28;20030;-74
2022/10/19 02:56:18;;;;;;;0.20;0.20;;;;;;;;;;5074572;28;20021;-74
2022/10/19 02:58:44;;;;;;;0.20;0.20;;;;;;;;;;5073831;28;20527;-74
2022/10/19 03:01:09;;;;;;;0.10;0.10;;;;;;;;;;5073996;28;20384;-75
2022/10/19 03:03:35;;;;;;;0.10;0.10;;;;;;;;;;5057191;28;20025;-75
2022/10/19 03:06:00;;;;;;;0.10;0.10;;;;;;;;;;5050979;28;20028;-76
2022/10/19 03:08:26;;;;;;;0.10;0.10;;;;;;;;;;5049264;28;20041;-76
2022/10/19 03:10:51;;;;;;;0.10;0.10;;;;;;;;;;5048525;28;20037;-76
2022/10/19 03:13:17;;;;;;;0.20;0.20;;;;;;;;;;5048546;28;20032;-74
2022/10/19 03:15:43;;;;;;;0.10;0.10;;;;;;;;;;5048776;28;20491;-74
2022/10/19 03:18:08;;;;;;;0.10;0.10;;;;;;;;;;5048090;28;20512;-75
2022/10/19 03:20:34;;;;;;;0.15;0.15;;;;;;;;;;5047951;28;20033;-75
2022/10/19 03:22:59;;;;;;;0.17;0.17;;;;;;;;;;5048114;28;20655;-75
2022/10/19 03:25:25;;;;;;;0.10;0.10;;;;;;;;;;5047317;28;20513;-74
2022/10/19 03:27:51;;;;;;;0.20;0.20;;;;;;;;;;5048112;28;20037;-75
2022/10/19 03:30:17;;;;;;;0.10;0.10;;;;;;;;;;5048123;28;20492;-76
2022/10/19 03:32:42;;;;;;;0.20;0.20;;;;;;;;;;5047542;28;20392;-75
2022/10/19 03:35:08;;;;;;;0.20;0.20;;;;;;;;;;5048205;28;20036;-75
2022/10/19 03:37:34;;;;;;;0.20;0.20;;;;;;;;;;5048017;28;20036;-77
2022/10/19 03:39:59;;;;;;;0.22;0.22;;;;;;;;;;5046990;28;20021;-76
2022/10/19 03:42:25;;;;;;;0.20;0.20;;;;;;;;;;5047841;28;20103;-75
2022/10/19 03:44:50;;;;;;;0.40;0.40;;;;;;;;;;5047250;28;20025;-75
2022/10/19 03:47:16;;;;;;;0.20;0.20;;;;;;;;;;5047656;28;20163;-75
2022/10/19 03:49:42;;;;;;;0.20;0.20;;;;;;;;;;5047500;28;20372;-75
2022/10/19 03:52:08;;;;;;;0.20;0.20;;;;;;;;;;5048539;28;20040;-75
2022/10/19 03:54:34;;;;;;;0.50;0.50;;;;;;;;;;5050398;28;20119;-75
2022/10/19 03:57:00;;;;;;;0.10;0.10;;;;;;;;;;5049451;28;20111;-74
2022/10/19 03:59:25;;;;;;;0.20;0.20;;;;;;;;;;5048489;28;20095;-75
2022/10/19 04:01:51;;;;;;;0.10;0.10;;;;;;;;;;5048720;28;20029;-76
2022/10/19 04:04:17;;;;;;;0.10;0.10;;;;;;;;;;5049355;28;20025;-75
2022/10/19 04:06:45;;;;;;;0.45;0.45;;;;;;;;;;5049621;28;20096;-75
2022/10/19 04:09:12;;;;;;;0.63;0.63;;;;;;;;;;5048279;28;20041;-74
2022/10/19 04:11:38;;;;;;;0.10;0.10;;;;;;;;;;5049258;28;20025;-74
2022/10/19 04:14:03;;;;;;;0.20;0.20;;;;;;;;;;5049610;28;20090;-75
2022/10/19 04:16:30;;;;;;;0.10;0.10;;;;;;;;;;5049626;28;20045;-76
2022/10/19 04:18:56;;;;;;;0.17;0.17;;;;;;;;;;5047615;28;20052;-75
2022/10/19 04:21:21;;;;;;;0.20;0.20;;;;;;;;;;5049566;28;20396;-75
2022/10/19 04:23:47;;;;;;;0.10;0.10;;;;;;;;;;5049671;28;20029;-74
2022/10/19 04:26:13;;;;;;;0.13;0.13;;;;;;;;;;5049301;28;20102;-74
2022/10/19 04:28:38;;;;;;;0.30;0.30;;;;;;;;;;5049082;28;20040;-75
2022/10/19 04:31:05;;;;;;;0.15;0.15;;;;;;;;;;5049462;28;20029;-74
2022/10/19 04:33:30;;;;;;;0.10;0.10;;;;;;;;;;5047977;28;20056;-73
2022/10/19 04:35:56;;;;;;;2.40;2.05;;;;;;;;;;5049152;28;20056;-74
2022/10/19 04:38:22;;;;;;;2.28;1.38;;;;;;;;;;5049467;28;20052;-73
2022/10/19 04:40:48;;;;;;;0.77;0.77;;;;;;;;;;5049089;28;20056;-74
2022/10/19 04:43:13;;;;;;;0.10;0.10;;;;;;;;;;5049000;28;20399;-74
2022/10/19 04:45:39;;;;;;;0.20;0.20;;;;;;;;;;5049150;28;20041;-74
2022/10/19 04:48:05;;;;;;;0.95;0.95;;;;;;;;;;5049190;28;20072;-74
2022/10/19 04:50:30;;;;;;;0.10;0.10;;;;;;;;;;5049631;28;20064;-74
2022/10/19 04:52:56;;;;;;;0.20;0.20;;;;;;;;;;5048947;28;20108;-75
2022/10/19 04:55:21;;;;;;;0.10;0.10;;;;;;;;;;5049308;28;20036;-74
2022/10/19 04:57:47;;;;;;;17.80;3.83;;;;;;;;;;5049054;28;20477;-74
2022/10/19 05:00:13;;;;;;;0.43;0.43;;;;;;;;;;5048615;28;20032;-75
2022/10/19 05:02:43;;;;;;;0.20;0.20;;;;;;;;;;5048784;28;20021;-74
2022/10/19 05:05:09;;;;;;;0.10;0.10;;;;;;;;;;5048650;28;20116;-74
2022/10/19 05:07:34;;;;;;;0.20;0.20;;;;;;;;;;5049128;28;20100;-73
2022/10/19 05:10:00;;;;;;;0.10;0.10;;;;;;;;;;5048905;28;20029;-74
2022/10/19 05:12:25;;;;;;;3.00;2.90;;;;;;;;;;5048574;28;20208;-74
2022/10/19 05:14:51;;;;;;;0.10;0.10;;;;;;;;;;5048662;28;20041;-73
2022/10/19 05:17:16;;;;;;;0.30;0.30;;;;;;;;;;5048167;28;20495;-74
2022/10/19 05:19:42;;;;;;;0.28;0.28;;;;;;;;;;5048927;28;20106;-74
2022/10/19 05:22:08;;;;;;;0.10;0.10;;;;;;;;;;5048147;28;20032;-74
2022/10/19 05:24:33;;;;;;;2.60;2.50;;;;;;;;;;5051813;28;20037;-75
2022/10/19 05:26:58;;;;;;;0.55;0.55;;;;;;;;;;5051879;28;20031;-74
2022/10/19 05:29:24;;;;;;;67.80;52.35;;;;;;;;;;5052614;28;20460;-74
2022/10/19 05:31:49;;;;;;;0.73;0.73;;;;;;;;;;5051712;28;20083;-75
2022/10/19 05:34:15;;;;;;;0.10;0.10;;;;;;;;;;5052284;28;20059;-76
2022/10/19 05:36:40;;;;;;;3.22;2.92;;;;;;;;;;5050112;28;20033;-75
2022/10/19 05:39:07;;;;;;;0.40;0.40;;;;;;;;;;5051420;28;20084;-76
2022/10/19 05:41:33;;;;;;;0.40;0.40;;;;;;;;;;5051692;28;20419;-75
2022/10/19 05:44:00;;;;;;;0.38;0.38;;;;;;;;;;5052203;28;20029;-76
2022/10/19 05:46:26;;;;;;;0.10;0.10;;;;;;;;;;5050781;28;20033;-74
2022/10/19 05:48:53;;;;;;;0.30;0.30;;;;;;;;;;5053212;28;20041;-76
2022/10/19 05:51:19;;;;;;;0.17;0.17;;;;;;;;;;5060844;28;20029;-77
2022/10/19 05:53:45;;;;;;;0.30;0.30;;;;;;;;;;5051720;28;20037;-75
2022/10/19 05:56:15;;;;;;;0.28;0.28;;;;;;;;;;5051937;28;20043;-75
2022/10/19 05:58:41;;;;;;;0.20;0.20;;;;;;;;;;5051965;28;20486;-74
2022/10/19 06:01:08;;;;;;;0.10;0.10;;;;;;;;;;5051300;28;20017;-74
2022/10/19 06:03:34;;;;;;;0.10;0.10;;;;;;;;;;5051534;28;20040;-75
2022/10/19 06:06:02;;;;;;;0.10;0.10;;;;;;;;;;5051709;28;20415;-76
2022/10/19 06:08:27;;;;;;;0.10;0.10;;;;;;;;;;5077035;28;20040;-71
2022/10/19 06:11:02;;;;;;;0.15;0.15;;;;;;;;;;5051644;28;20035;-69
2022/10/19 06:13:28;;;;;;;0.13;0.13;;;;;;;;;;5058068;28;20036;-69
2022/10/19 06:15:53;;;;;;;0.10;0.10;;;;;;;;;;5058523;28;20024;-69
2022/10/19 06:18:19;;;;;;;0.25;0.25;;;;;;;;;;5060414;28;20473;-69
2022/10/19 06:20:44;;;;;;;0.10;0.10;;;;;;;;;;5050916;28;20029;-69
2022/10/19 06:23:10;;;;;;;0.20;0.20;;;;;;;;;;5057573;28;20106;-69
2022/10/19 06:25:35;;;;;;;0.20;0.20;;;;;;;;;;5049931;28;20036;-69
2022/10/19 06:28:01;;;;;;;0.25;0.25;;;;;;;;;;5051762;28;20044;-70
2022/10/19 06:30:27;;;;;;;0.10;0.10;;;;;;;;;;5050168;28;20031;-71
2022/10/19 06:32:53;;;;;;;0.38;0.38;;;;;;;;;;5051003;28;20044;-70
2022/10/19 06:35:18;;;;;;;1.00;1.00;;;;;;;;;;5049265;28;20108;-72
2022/10/19 06:37:44;;;;;;;0.20;0.20;;;;;;;;;;5059860;28;20032;-70
2022/10/19 06:40:10;;;;;;;0.40;0.40;;;;;;;;;;5051406;28;20416;-70
2022/10/19 06:42:38;;;;;;;0.52;0.30;;;;;;;;;;5052466;28;20432;-72
2022/10/19 06:45:07;;;;;;;2.50;0.70;;;;;;;;;;5058303;28;20108;-71
2022/10/19 06:47:33;;;;;;;0.20;0.20;;;;;;;;;;5049217;28;20052;-70
2022/10/19 06:49:58;;;;;;;0.20;0.20;;;;;;;;;;5050930;28;20029;-70
2022/10/19 06:52:24;;;;;;;2.42;0.75;;;;;;;;;;5049975;28;20033;-71
2022/10/19 06:54:49;;;;;;;0.10;0.10;;;;;;;;;;5050477;28;20021;-71
2022/10/19 06:57:15;;;;;;;0.30;0.30;;;;;;;;;;5054826;28;20440;-73
2022/10/19 06:59:40;;;;;;;0.30;0.30;;;;;;;;;;5050859;28;20307;-70
2022/10/19 07:02:05;;;;;;;3.35;3.13;;;;;;;;;;5050600;28;20484;-71
2022/10/19 07:04:31;;;;;;;0.38;0.38;;;;;;;;;;5057989;28;20392;-71
2022/10/19 07:06:56;;;;;;;0.10;0.10;;;;;;;;;;5050178;28;20029;-70
2022/10/19 07:09:22;;;;;;;0.20;0.20;;;;;;;;;;5051011;28;20037;-71
2022/10/19 07:11:48;;;;;;;4.07;3.65;;;;;;;;;;5062834;28;20032;-70
2022/10/19 07:14:13;;;;;;;0.20;0.20;;;;;;;;;;5050418;28;20017;-71
2022/10/19 07:16:39;;;;;;;1.65;1.55;;;;;;;;;;5050161;28;20461;-69
2022/10/19 07:19:04;;;;;;;0.10;0.10;;;;;;;;;;5049782;28;20045;-70
2022/10/19 07:21:30;;;;;;;0.20;0.20;;;;;;;;;;5050105;28;20028;-70
2022/10/19 07:23:55;;;;;;;0.20;0.20;;;;;;;;;;5050243;28;20039;-71
2022/10/19 07:26:25;;;;;;;1.10;1.10;;;;;;;;;;5050346;28;20473;-70
2022/10/19 07:28:50;;;;;;;5.22;2.83;;;;;;;;;;5049584;28;20071;-72
2022/10/19 07:31:19;;;;;;;1.10;1.00;;;;;;;;;;5048404;28;20052;-70
2022/10/19 07:33:44;;;;;;;0.73;0.73;;;;;;;;;;5050076;28;20051;-75
2022/10/19 07:36:11;;;;;;;0.28;0.28;;;;;;;;;;5048998;28;20480;-71
2022/10/19 07:38:37;;;;;;;0.28;0.28;;;;;;;;;;5050148;28;20033;-72
2022/10/19 07:41:04;;;;;;;0.30;0.30;;;;;;;;;;5049983;28;20033;-72
2022/10/19 07:43:30;;;;;;;0.70;0.70;;;;;;;;;;5050328;28;20119;-70
2022/10/19 07:46:03;;;;;;;0.50;0.50;;;;;;;;;;5049087;28;20442;-70
2022/10/19 07:48:29;;;;;;;0.20;0.20;;;;;;;;;;5049710;28;20036;-70
2022/10/19 07:50:54;;;;;;;13.85;1.33;;;;;;;;;;5048577;28;20087;-71
2022/10/19 07:53:20;;;;;;;0.10;0.10;;;;;;;;;;5049836;28;20059;-70
2022/10/19 07:55:46;;;;;;;0.63;0.63;;;;;;;;;;5049891;28;20558;-70
2022/10/19 07:58:11;;;;;;;0.20;0.20;;;;;;;;;;5048418;28;20033;-71
2022/10/19 08:00:37;;;;;;;0.68;0.65;;;;;;;;;;5049656;28;20017;-69
2022/10/19 08:03:02;;;;;;;3.15;2.95;;;;;;;;;;5049120;28;20029;-70
2022/10/19 08:05:28;;;;;;;0.32;0.32;;;;;;;;;;5049052;28;20108;-69
2022/10/19 08:07:53;;;;;;;0.20;0.20;;;;;;;;;;5048187;28;20045;-70
2022/10/19 08:10:19;;;;;;;0.65;0.65;;;;;;;;;;5049653;28;20060;-69
2022/10/19 08:12:44;;;;;;;0.20;0.20;;;;;;;;;;5049592;28;20472;-72
2022/10/19 08:15:10;;;;;;;0.20;0.20;;;;;;;;;;5048542;28;20522;-71
2022/10/19 08:17:35;;;;;;;0.93;0.93;;;;;;;;;;5049750;28;20492;-72
2022/10/19 08:20:01;;;;;;;0.20;0.20;;;;;;;;;;5049281;28;20029;-72
2022/10/19 08:22:27;;;;;;;0.20;0.20;;;;;;;;;;5049017;28;20036;-71
2022/10/19 08:24:52;;;;;;;0.20;0.20;;;;;;;;;;5048970;28;20025;-70
2022/10/19 08:27:18;;;;;;;0.30;0.30;;;;;;;;;;5048353;28;20029;-70
2022/10/19 08:29:43;;;;;;;0.20;0.20;;;;;;;;;;5047768;28;20199;-70
2022/10/19 08:32:09;;;;;;;0.20;0.20;;;;;;;;;;5049322;28;20025;-71
2022/10/19 08:34:35;;;;;;;0.20;0.20;;;;;;;;;;5049321;28;20021;-71
2022/10/19 08:37:01;;;;;;;8.00;0.85;;;;;;;;;;5048720;28;20053;-71
2022/10/19 08:42:04;;;;;;;0.88;0.88;;;;;;;;;;5065407;27;236902;-70
2022/10/19 08:44:33;;;;;;;0.20;0.20;;;;;;;;;;5079760;28;20546;-70
2022/10/19 08:46:58;;;;;;;0.27;0.27;;;;;;;;;;5086410;28;20551;-70
2022/10/19 08:49:25;;;;;;;0.20;0.20;;;;;;;;;;5086868;28;20021;-70
2022/10/19 08:51:54;;;;;;;1.08;0.93;;;;;;;;;;5087161;28;20027;-73
2022/10/19 08:54:20;;;;;;;0.20;0.20;;;;;;;;;;5086717;28;20035;-73
2022/10/19 08:57:17;;;;;;;1.27;1.17;;;;;;;;;;5086959;28;20072;-72
2022/10/19 08:59:50;;;;;;;0.30;0.30;;;;;;;;;;5041714;28;20045;-71
2022/10/19 09:02:21;;;;;;;2.40;1.27;;;;;;;;;;5086444;28;20036;-71
2022/10/19 09:04:54;;;;;;;0.30;0.30;;;;;;;;;;5086612;28;20024;-71
2022/10/19 09:07:28;;;;;;;0.45;0.45;;;;;;;;;;5068578;28;20033;-73
2022/10/19 09:10:12;;;;;;;0.50;0.50;;;;;;;;;;5068938;28;20346;-73
2022/10/19 09:12:49;;;;;;;0.30;0.30;;;;;;;;;;5066389;28;20020;-71
2022/10/19 09:15:17;;;;;;;0.30;0.30;;;;;;;;;;5051778;28;20073;-72
2022/10/19 09:17:42;;;;;;;0.30;0.30;;;;;;;;;;5086533;28;20027;-71
2022/10/19 09:20:19;;;;;;;0.20;0.20;;;;;;;;;;5085824;28;20474;-71
2022/10/19 09:22:45;;;;;;;1.48;1.25;;;;;;;;;;5068664;28;20024;-71
2022/10/19 09:25:18;;;;;;;1.38;1.27;;;;;;;;;;5062282;28;20035;-73
2022/10/19 09:27:45;;;;;;;0.90;0.85;;;;;;;;;;5045678;28;20463;-71
2022/10/19 09:30:19;;;;;;;0.22;0.22;;;;;;;;;;5064945;28;20539;-73
2022/10/19 09:32:44;;;;;;;0.30;0.30;;;;;;;;;;5047689;28;20360;-72
2022/10/19 09:35:13;;;;;;;0.30;0.30;;;;;;;;;;5065373;28;20151;-71
2022/10/19 09:37:43;;;;;;;0.20;0.20;;;;;;;;;;5065968;28;20029;-72
2022/10/19 09:40:20;;;;;;;0.40;0.40;;;;;;;;;;5044201;28;20041;-74
2022/10/19 09:42:49;;;;;;;1.10;0.65;;;;;;;;;;5045438;28;20037;-71
2022/10/19 09:45:15;;;;;;;;;;;;;;;;;;5045900;28;20135;-72
2022/10/19 09:47:44;;;;;;;0.75;0.75;;;;;;;;;;5052110;28;20015;-71
2022/10/19 09:50:23;;;;;;;6.03;2.20;;;;;;;;;;5045688;28;20139;-71
2022/10/19 09:52:49;;;;;;;1.15;0.95;;;;;;;;;;5052446;28;20028;-71
2022/10/19 09:55:33;;;;;;;0.40;0.40;;;;;;;;;;5050165;28;20029;-71
2022/10/19 09:58:16;;;;;;;0.30;0.30;;;;;;;;;;5049893;28;20086;-70
2022/10/19 10:00:45;;;;;;;0.45;0.45;;;;;;;;;;5031609;28;20045;-69
2022/10/19 10:03:23;;;;;;;0.35;0.35;;;;;;;;;;5051032;28;20546;-70
2022/10/19 10:05:48;;;;;;;1.52;0.50;;;;;;;;;;5050285;28;20036;-70
2022/10/19 10:08:19;;;;;;;0.20;0.20;;;;;;;;;;5051960;28;20086;-71
2022/10/19 10:11:05;;;;;;;0.20;0.20;;;;;;;;;;5050298;28;20071;-72
2022/10/19 10:13:34;;;;;;;0.20;0.20;;;;;;;;;;5033815;28;20021;-71
2022/10/19 10:16:00;;;;;;;0.20;0.20;;;;;;;;;;5047805;28;20032;-70
2022/10/19 10:18:26;;;;;;;0.30;0.30;;;;;;;;;;5048785;28;20406;-73
2022/10/19 10:20:55;;;;;;;0.20;0.20;;;;;;;;;;5033455;28;20769;-72
2022/10/19 10:23:25;;;;;;;0.20;0.20;;;;;;;;;;5050298;28;20035;-74
2022/10/19 10:25:53;;;;;;;0.35;0.35;;;;;;;;;;5051237;28;20915;-73
2022/10/19 10:28:20;;;;;;;1.88;0.98;;;;;;;;;;5048231;28;20033;-72
2022/10/19 10:30:47;;;;;;;0.20;0.20;;;;;;;;;;5032506;28;20028;-73
2022/10/19 10:33:16;;;;;;;2.13;1.85;;;;;;;;;;5036907;28;20029;-73
2022/10/19 10:35:41;;;;;;;;;;;;;;;;;;5047220;28;20017;-72
2022/10/19 10:38:15;;;;;;;0.20;0.20;;;;;;;;;;5037116;28;19916;-71
2022/10/19 10:40:48;;;;;;;0.47;0.47;;;;;;;;;;5050605;28;20299;-71
2022/10/19 10:43:15;;;;;;;0.22;0.22;;;;;;;;;;5050015;28;20032;-74
2022/10/19 10:45:51;;;;;;;0.30;0.30;;;;;;;;;;5051229;28;20033;-71
2022/10/19 10:48:23;;;;;;;0.40;0.40;;;;;;;;;;5051198;28;20098;-72
2022/10/19 10:50:50;;;;;;;0.68;0.68;;;;;;;;;;5050884;28;20028;-71
2022/10/19 10:53:28;;;;;;;0.20;0.20;;;;;;;;;;5049938;28;20032;-72
2022/10/19 10:55:54;;;;;;;0.90;0.57;;;;;;;;;;5045159;28;20029;-72
2022/10/19 10:58:30;;;;;;;3.40;2.50;;;;;;;;;;5050202;28;20114;-70
2022/10/19 11:00:57;;;;;;;1.23;1.13;;;;;;;;;;5033445;28;20498;-72
2022/10/19 11:03:25;;;;;;;1.85;1.75;;;;;;;;;;5050018;28;20083;-71
2022/10/19 11:05:54;;;;;;;1.77;1.23;;;;;;;;;;5050428;28;20467;-71
2022/10/19 11:08:20;;;;;;;0.30;0.30;;;;;;;;;;5049815;28;20097;-70
2022/10/19 11:10:48;;;;;;;0.20;0.20;;;;;;;;;;5048953;28;20108;-70
2022/10/19 11:13:14;;;;;;;3.03;1.98;;;;;;;;;;5046025;28;20025;-71
2022/10/19 11:15:52;;;;;;;0.28;0.28;;;;;;;;;;5050904;28;20486;-71
2022/10/19 11:18:24;;;;;;;17.85;2.15;;;;;;;;;;5044769;28;20029;-73
2022/10/19 11:20:56;;;;;;;1.13;1.13;;;;;;;;;;5025909;28;20033;-71
2022/10/19 11:23:36;;;;;;;0.80;0.70;;;;;;;;;;5039572;28;20041;-70
2022/10/19 11:26:20;;;;;;;2.67;1.25;;;;;;;;;;5030369;28;20036;-70
2022/10/19 11:28:48;;;;;;;5.72;3.90;;;;;;;;;;5030119;28;20120;-71
2022/10/19 11:31:18;;;;;;;1.07;1.03;;;;;;;;;;5030245;28;20499;-70
2022/10/19 11:34:22;;;;;;;0.85;0.80;;;;;;;;;;5028659;28;20384;-71
2022/10/19 11:37:00;;;;;;;0.57;0.57;;;;;;;;;;4930742;29;20036;-73
2022/10/19 11:39:26;;;;;;;0.25;0.25;;;;;;;;;;4930802;29;20103;-72
2022/10/19 11:41:51;;;;;;;0.30;0.30;;;;;;;;;;4985637;28;20049;-71
2022/10/19 11:44:29;;;;;;;0.20;0.20;;;;;;;;;;5029008;28;20448;-73
2022/10/19 11:46:55;;;;;;;3.97;2.30;;;;;;;;;;5012413;28;20048;-72
2022/10/19 11:49:34;;;;;;;1.52;1.33;;;;;;;;;;5030660;28;20030;-70
2022/10/19 11:52:00;;;;;;;;;;;;;;;;;;5030619;28;20488;-72
2022/10/19 11:54:31;;;;;;;2.10;1.73;;;;;;;;;;5012395;28;19908;-71
2022/10/19 11:57:11;;;;;;;10.18;4.25;;;;;;;;;;5029442;28;20358;-72
2022/10/19 11:59:44;;;;;;;3.08;2.88;;;;;;;;;;5029951;28;20029;-72
2022/10/19 12:02:21;;;;;;;1.98;1.65;;;;;;;;;;5012260;28;20030;-72
2022/10/19 12:04:56;;;;;;;8.68;7.78;;;;;;;;;;5035410;28;20053;-71
2022/10/19 12:07:27;;;;;;;3.92;2.22;;;;;;;;;;5023826;28;20121;-71
2022/10/19 12:09:59;;;;;;;1.20;1.10;;;;;;;;;;5046399;28;20329;-71
2022/10/19 12:12:51;;;;;;;6.32;3.75;;;;;;;;;;5045710;28;20052;-71
2022/10/19 12:15:25;;;;;;;3.85;3.05;;;;;;;;;;5043043;28;20045;-71
2022/10/19 12:17:51;;;;;;;2.88;2.33;;;;;;;;;;5047011;28;20086;-73
2022/10/19 12:20:20;;;;;;;4.10;3.75;;;;;;;;;;5043698;28;20622;-73
2022/10/19 12:22:47;;;;;;;1.30;0.95;;;;;;;;;;5026662;28;20091;-70
2022/10/19 12:25:13;;;;;;;0.32;0.32;;;;;;;;;;5008756;28;20121;-71
2022/10/19 12:27:40;;;;;;;1.65;0.68;;;;;;;;;;5034028;28;20389;-71
2022/10/19 12:30:07;;;;;;;3.95;2.33;;;;;;;;;;5046124;28;20041;-71
2022/10/19 12:32:48;;;;;;;4.10;3.10;;;;;;;;;;5045984;28;20087;-70
2022/10/19 12:35:27;;;;;;;9.07;4.38;;;;;;;;;;5028761;28;20052;-71
2022/10/19 12:38:02;;;;;;;2.28;1.58;;;;;;;;;;5028787;28;20053;-70
2022/10/19 12:40:37;;;;;;;0.55;0.55;;;;;;;;;;5036009;28;20614;-72
2022/10/19 12:43:12;;;;;;;6.25;2.95;;;;;;;;;;5034144;28;20044;-70
2022/10/19 12:45:48;;;;;;;0.47;0.47;;;;;;;;;;5029025;28;20124;-70
2022/10/19 12:48:17;;;;;;;0.25;0.25;;;;;;;;;;5042535;28;20612;-71
2022/10/19 12:50:48;;;;;;;2.95;1.67;;;;;;;;;;5048441;28;20033;-71
2022/10/19 12:53:26;;;;;;;0.20;0.20;;;;;;;;;;5045897;28;20352;-72
2022/10/19 12:55:59;;;;;;;1.85;1.75;;;;;;;;;;5025696;28;20030;-72
2022/10/19 12:58:25;;;;;;;0.30;0.30;;;;;;;;;;5009454;28;20102;-71
2022/10/19 13:00:58;;;;;;;1.23;1.13;;;;;;;;;;5009699;28;20048;-71
2022/10/19 13:03:26;;;;;;;0.22;0.22;;;;;;;;;;5008434;28;20152;-71
2022/10/19 13:05:56;;;;;;;3.25;1.70;;;;;;;;;;5008184;28;20040;-72
2022/10/19 13:08:27;;;;;;;1.38;1.05;;;;;;;;;;5008524;28;20029;-71
2022/10/19 13:11:07;;;;;;;1.50;1.40;;;;;;;;;;5026480;28;20160;-71
2022/10/19 13:13:51;;;;;;;1.45;1.15;;;;;;;;;;5026397;28;20025;-71
2022/10/19 13:16:28;;;;;;;4.78;0.60;;;;;;;;;;5026936;28;20117;-71
2022/10/19 13:19:00;;;;;;;0.20;0.20;;;;;;;;;;5027758;28;20542;-70
2022/10/19 13:21:44;;;;;;;6.10;1.08;;;;;;;;;;5010239;28;20396;-70
2022/10/19 13:24:24;;;;;;;3.40;1.75;;;;;;;;;;5028061;28;20108;-71
2022/10/19 13:27:10;;;;;;;0.20;0.20;;;;;;;;;;5011080;28;20384;-72
2022/10/19 13:29:41;;;;;;;2.92;1.63;;;;;;;;;;5000704;28;20049;-72
2022/10/19 13:32:25;;;;;;;4.50;2.22;;;;;;;;;;5014200;28;20037;-72
2022/10/19 13:34:51;;;;;;;1.75;1.33;;;;;;;;;;5013810;28;20176;-71
2022/10/19 13:37:17;;;;;;;0.82;0.73;;;;;;;;;;5013350;28;20141;-71
2022/10/19 13:39:43;;;;;;;0.15;0.15;;;;;;;;;;5031398;28;20029;-72
2022/10/19 13:42:25;;;;;;;7.18;2.47;;;;;;;;;;5030094;28;20057;-72
2022/10/19 13:44:51;;;;;;;1.38;1.25;;;;;;;;;;5012013;28;20033;-70
2022/10/19 13:47:23;;;;;;;0.85;0.73;;;;;;;;;;5030139;28;20021;-72
2022/10/19 13:49:48;;;;;;;3.75;1.35;;;;;;;;;;5035828;28;20040;-70
2022/10/19 13:52:32;;;;;;;3.30;1.85;;;;;;;;;;5049996;28;20360;-72
2022/10/19 13:55:16;;;;;;;0.63;0.60;;;;;;;;;;5047422;28;20072;-70
2022/10/19 13:57:54;;;;;;;1.50;1.08;;;;;;;;;;5048407;28;20028;-72
2022/10/19 14:00:21;;;;;;;0.90;0.50;;;;;;;;;;5029932;28;20037;-71
2022/10/19 14:02:58;;;;;;;1.85;1.33;;;;;;;;;;5048018;28;20017;-70
2022/10/19 14:05:43;;;;;;;2.05;0.63;;;;;;;;;;5048353;28;20029;-72
2022/10/19 14:08:27;;;;;;;7.15;1.35;;;;;;;;;;5048713;28;20064;-72
2022/10/19 14:11:25;;;;;;;2.00;0.80;;;;;;;;;;5048877;28;20033;-72
2022/10/19 14:14:07;;;;;;;3.65;2.28;;;;;;;;;;4994242;28;20033;-71
2022/10/19 14:16:33;;;;;;;3.33;2.33;;;;;;;;;;5049032;28;20063;-71
2022/10/19 14:18:58;;;;;;;1.50;1.42;;;;;;;;;;5049077;28;20133;-71
2022/10/19 14:21:28;;;;;;;4.15;3.22;;;;;;;;;;5047779;28;20510;-70
2022/10/19 14:23:53;;;;;;;3.22;1.92;;;;;;;;;;5049390;28;20037;-71
2022/10/19 14:26:22;;;;;;;2.35;1.50;;;;;;;;;;5050242;28;20082;-71
2022/10/19 14:28:52;;;;;;;1.63;1.10;;;;;;;;;;5050884;28;20207;-71
2022/10/19 14:31:19;;;;;;;0.60;0.50;;;;;;;;;;5032935;28;20029;-70
2022/10/19 14:33:46;;;;;;;3.03;1.33;;;;;;;;;;5048059;28;20033;-71
2022/10/19 14:36:16;;;;;;;2.42;1.30;;;;;;;;;;5049688;28;20032;-71
2022/10/19 14:38:42;;;;;;;4.28;1.98;;;;;;;;;;5048530;28;20021;-71
2022/10/19 14:41:18;;;;;;;2.53;1.80;;;;;;;;;;5049515;28;20080;-71
2022/10/19 14:43:44;;;;;;;3.30;3.00;;;;;;;;;;5049749;28;20017;-71
2022/10/19 14:46:11;;;;;;;4.80;1.77;;;;;;;;;;5049001;28;20048;-71
2022/10/19 14:48:41;;;;;;;0.60;0.60;;;;;;;;;;5032374;28;20440;-72
2022/10/19 14:51:25;;;;;;;0.40;0.40;;;;;;;;;;5049487;28;20045;-72
2022/10/19 14:53:53;;;;;;;1.02;0.73;;;;;;;;;;5032571;28;20025;-70
2022/10/19 14:56:19;;;;;;;0.40;0.40;;;;;;;;;;5049805;28;20179;-70